createdAt,value
2019-05-21T00:00:54.784Z,99.40
2019-05-21T00:03:23.243Z,99.30
2019-05-21T00:05:51.715Z,99.40
2019-05-21T00:08:20.556Z,99.40
2019-05-21T00:10:49.025Z,99.30
2019-05-21T00:13:17.507Z,99.70
2019-05-21T00:15:45.979Z,99.80
2019-05-21T00:18:14.502Z,99.80
2019-05-21T00:20:43.262Z,99.40
2019-05-21T00:23:12.262Z,99.60
2019-05-21T00:25:40.738Z,99.80
2019-05-21T00:28:34.779Z,99.30
2019-05-21T00:31:40.047Z,99.60
2019-05-21T00:34:44.988Z,99.70
2019-05-21T00:37:50.451Z,99.80
2019-05-21T00:40:55.608Z,99.70
2019-05-21T00:43:27.135Z,99.70
2019-05-21T00:45:55.660Z,99.80
2019-05-21T00:48:24.103Z,99.40
2019-05-21T00:50:52.590Z,99.70
2019-05-21T00:53:21.383Z,99.80
2019-05-21T00:55:49.947Z,99.50
2019-05-21T00:58:18.739Z,99.50
2019-05-21T01:00:47.207Z,99.60
2019-05-21T01:03:15.646Z,99.60
2019-05-21T01:05:44.466Z,99.70
2019-05-21T01:08:12.890Z,99.50
2019-05-21T01:10:41.772Z,99.50
2019-05-21T01:13:10.289Z,99.30
2019-05-21T01:15:38.751Z,99.40
2019-05-21T01:18:07.200Z,99.40
2019-05-21T01:20:36.076Z,99.50
2019-05-21T01:23:04.857Z,99.40
2019-05-21T01:25:33.303Z,99.70
2019-05-21T01:28:01.759Z,99.60
2019-05-21T01:30:30.490Z,99.50
2019-05-21T01:32:58.938Z,99.60
2019-05-21T01:35:27.369Z,99.70
2019-05-21T01:37:56.134Z,99.50
2019-05-21T01:40:24.931Z,99.50
2019-05-21T01:42:53.350Z,99.40
2019-05-21T01:45:22.090Z,99.40
2019-05-21T01:47:50.524Z,99.20
2019-05-21T01:50:19.356Z,99.50
2019-05-21T01:52:47.779Z,99.40
2019-05-21T01:55:16.615Z,99.50
2019-05-21T01:57:45.060Z,99.40
2019-05-21T02:00:13.988Z,99.30
2019-05-21T02:02:42.414Z,99.50
2019-05-21T02:05:10.869Z,99.50
2019-05-21T02:07:39.396Z,99.30
2019-05-21T02:10:08.466Z,99.30
2019-05-21T02:12:36.958Z,99.10
2019-05-21T02:15:07.299Z,99.30
2019-05-21T02:17:35.749Z,99.10
2019-05-21T02:20:05.647Z,99.30
2019-05-21T02:22:34.498Z,99.20
2019-05-21T02:25:03.217Z,99.10
2019-05-21T02:27:31.701Z,99.10
2019-05-21T02:30:00.132Z,99.40
2019-05-21T02:32:28.565Z,99.50
2019-05-21T02:34:57.013Z,99.50
2019-05-21T02:37:58.644Z,99.30
2019-05-21T02:40:27.050Z,99.50
2019-05-21T02:42:55.555Z,99.50
2019-05-21T02:45:24.304Z,99.10
2019-05-21T02:47:53.119Z,99.20
2019-05-21T02:50:21.560Z,99.40
2019-05-21T02:52:50.006Z,99.40
2019-05-21T02:55:18.526Z,99.40
2019-05-21T02:57:47.032Z,99.50
2019-05-21T03:00:29.267Z,99.60
2019-05-21T03:02:58.966Z,99.50
2019-05-21T03:05:27.431Z,99.70
2019-05-21T03:07:55.888Z,99.60
2019-05-21T03:10:24.673Z,99.40
2019-05-21T03:12:53.211Z,99.50
2019-05-21T03:15:21.711Z,99.60
2019-05-21T03:17:50.145Z,99.60
2019-05-21T03:20:18.731Z,99.80
2019-05-21T03:22:47.167Z,99.80
2019-05-21T03:25:15.695Z,99.80
2019-05-21T03:27:44.544Z,99.80
2019-05-21T03:30:14.369Z,99.80
2019-05-21T03:32:43.159Z,99.80
2019-05-21T03:35:12.350Z,99.80
2019-05-21T03:37:40.798Z,99.80
2019-05-21T03:40:09.927Z,99.80
2019-05-21T03:42:38.405Z,99.80
2019-05-21T03:45:08.157Z,99.80
2019-05-21T03:47:37.260Z,99.80
2019-05-21T03:50:06.793Z,99.80
2019-05-21T03:52:35.252Z,99.80
2019-05-21T03:55:04.414Z,99.80
2019-05-21T03:57:32.892Z,99.80
2019-05-21T04:00:01.659Z,99.80
2019-05-21T04:02:30.141Z,99.80
2019-05-21T04:04:58.609Z,99.80
2019-05-21T04:07:27.496Z,99.80
2019-05-21T04:09:55.924Z,99.80
2019-05-21T04:12:24.400Z,99.80
2019-05-21T04:14:54.488Z,99.80
2019-05-21T04:17:24.567Z,99.80
2019-05-21T04:19:53.394Z,99.80
2019-05-21T04:22:22.118Z,99.80
2019-05-21T04:24:50.679Z,99.80
2019-05-21T04:27:19.096Z,99.80
2019-05-21T04:29:47.538Z,99.80
2019-05-21T04:32:15.983Z,99.80
2019-05-21T04:34:44.476Z,99.80
2019-05-21T04:37:17.137Z,99.80
2019-05-21T04:39:43.081Z,99.80
2019-05-21T04:42:17.062Z,99.80
2019-05-21T04:44:45.962Z,99.80
2019-05-21T04:47:14.747Z,99.80
2019-05-21T04:49:43.182Z,99.80
2019-05-21T04:52:11.641Z,99.80
2019-05-21T04:54:40.087Z,99.80
2019-05-21T04:57:08.542Z,99.80
2019-05-21T04:59:37.035Z,99.80
2019-05-21T05:02:05.537Z,99.80
2019-05-21T05:04:34.030Z,99.80
2019-05-21T05:07:02.503Z,99.80
2019-05-21T05:09:31.028Z,99.70
2019-05-21T05:11:59.464Z,99.80
2019-05-21T05:14:27.940Z,99.80
2019-05-21T05:16:56.387Z,99.80
2019-05-21T05:19:24.831Z,99.80
2019-05-21T05:21:53.283Z,99.80
2019-05-21T05:24:21.740Z,99.80
2019-05-21T05:26:53.193Z,99.80
2019-05-21T05:29:21.761Z,99.80
2019-05-21T05:31:50.198Z,99.80
2019-05-21T05:34:18.683Z,99.80
2019-05-21T05:36:47.399Z,99.80
2019-05-21T05:39:16.173Z,99.80
2019-05-21T05:41:44.707Z,99.80
2019-05-21T05:44:13.172Z,99.80
2019-05-21T05:46:41.660Z,99.80
2019-05-21T05:49:14.519Z,99.80
2019-05-21T05:51:43.809Z,99.80
2019-05-21T05:54:12.264Z,99.80
2019-05-21T05:56:40.719Z,99.80
2019-05-21T05:59:09.519Z,99.80
2019-05-21T06:01:37.966Z,99.60
2019-05-21T06:04:06.455Z,99.80
2019-05-21T06:06:34.909Z,99.70
2019-05-21T06:09:05.422Z,99.30
2019-05-21T06:11:33.946Z,99.30
2019-05-21T06:14:02.499Z,99.50
2019-05-21T06:16:31.001Z,99.60
2019-05-21T06:18:59.500Z,99.70
2019-05-21T06:21:28.341Z,99.80
2019-05-21T06:23:56.808Z,99.80
2019-05-21T06:26:25.284Z,99.80
2019-05-21T06:28:53.744Z,99.80
2019-05-21T06:31:22.214Z,99.80
2019-05-21T06:33:50.711Z,99.80
2019-05-21T06:36:19.210Z,99.80
2019-05-21T06:38:47.734Z,99.80
2019-05-21T06:41:16.558Z,99.80
2019-05-21T06:43:45.116Z,99.80
2019-05-21T06:46:13.593Z,99.80
2019-05-21T06:48:42.061Z,99.80
2019-05-21T06:51:10.607Z,99.80
2019-05-21T06:53:39.077Z,99.80
2019-05-21T06:56:07.993Z,99.80
2019-05-21T06:58:36.496Z,99.80
2019-05-21T07:01:04.986Z,99.80
2019-05-21T07:03:33.550Z,99.80
2019-05-21T07:06:02.058Z,99.80
2019-05-21T07:08:34.536Z,99.70
2019-05-21T07:11:00.715Z,99.80
2019-05-21T07:13:31.145Z,99.80
2019-05-21T07:15:59.382Z,99.80
2019-05-21T07:18:27.823Z,99.80
2019-05-21T07:20:56.400Z,99.80
2019-05-21T07:23:24.843Z,99.80
2019-05-21T07:25:53.310Z,99.80
2019-05-21T07:28:21.801Z,99.80
2019-05-21T07:30:50.354Z,99.80
2019-05-21T07:33:18.819Z,99.80
2019-05-21T07:35:47.294Z,99.80
2019-05-21T07:38:15.738Z,99.80
2019-05-21T07:40:44.184Z,99.80
2019-05-21T07:43:12.627Z,99.80
2019-05-21T07:45:41.079Z,99.80
2019-05-21T07:48:09.557Z,99.80
2019-05-21T07:50:38.045Z,99.80
2019-05-21T07:53:06.483Z,99.80
2019-05-21T07:55:35.115Z,99.80
2019-05-21T07:58:03.924Z,99.80
2019-05-21T08:00:32.465Z,99.80
2019-05-21T08:03:00.906Z,99.80
2019-05-21T08:05:29.350Z,99.80
2019-05-21T08:07:58.083Z,99.80
2019-05-21T08:10:26.576Z,99.80
2019-05-21T08:12:55.339Z,99.80
2019-05-21T08:15:23.791Z,99.80
2019-05-21T08:17:52.611Z,99.80
2019-05-21T08:20:21.702Z,99.80
2019-05-21T08:22:50.171Z,99.80
2019-05-21T08:25:18.629Z,99.80
2019-05-21T08:27:47.134Z,99.80
2019-05-21T08:30:15.783Z,99.80
2019-05-21T08:32:44.247Z,99.80
2019-05-21T08:35:13.211Z,99.80
2019-05-21T08:37:41.694Z,99.80
2019-05-21T08:40:10.987Z,99.80
2019-05-21T08:42:39.514Z,99.80
2019-05-21T08:45:09.542Z,99.60
2019-05-21T08:47:38.092Z,99.80
2019-05-21T08:50:09.918Z,99.80
2019-05-21T08:52:38.409Z,99.80
2019-05-21T08:55:08.608Z,99.80
2019-05-21T08:57:37.151Z,99.80
2019-05-21T09:00:15.611Z,99.80
2019-05-21T09:02:44.530Z,99.70
2019-05-21T09:05:13.210Z,99.80
2019-05-21T09:07:41.697Z,99.80
2019-05-21T09:10:11.097Z,99.80
2019-05-21T09:12:39.578Z,99.80
2019-05-21T09:15:09.085Z,99.70
2019-05-21T09:17:37.569Z,99.80
2019-05-21T09:20:10.809Z,99.80
2019-05-21T09:22:39.703Z,99.70
2019-05-21T09:25:09.122Z,99.80
2019-05-21T09:27:38.202Z,99.80
2019-05-21T09:30:08.869Z,99.70
2019-05-21T09:32:37.420Z,99.70
2019-05-21T09:35:07.824Z,99.80
2019-05-21T09:37:36.359Z,99.70
2019-05-21T09:40:09.231Z,99.80
2019-05-21T09:42:38.169Z,99.80
2019-05-21T09:45:08.310Z,99.80
2019-05-21T09:47:36.786Z,99.80
2019-05-21T09:50:07.581Z,99.80
2019-05-21T09:52:36.146Z,99.60
2019-05-21T09:55:06.774Z,99.70
2019-05-21T09:57:43.924Z,99.30
2019-05-21T10:00:34.256Z,99.60
2019-05-21T10:03:04.945Z,99.00
2019-05-21T10:05:33.391Z,99.00
2019-05-21T10:08:01.930Z,98.80
2019-05-21T10:10:30.379Z,99.20
2019-05-21T10:12:58.842Z,99.40
2019-05-21T10:15:27.284Z,99.80
2019-05-21T10:17:56.132Z,99.80
2019-05-21T10:20:24.572Z,99.80
2019-05-21T10:22:53.033Z,99.80
2019-05-21T10:25:21.475Z,99.40
2019-05-21T10:27:49.904Z,99.70
2019-05-21T10:30:18.816Z,99.80
2019-05-21T10:32:47.280Z,99.80
2019-05-21T10:35:15.898Z,99.80
2019-05-21T10:37:54.543Z,99.80
2019-05-21T10:40:14.835Z,99.80
2019-05-21T10:42:43.361Z,99.80
2019-05-21T10:45:12.587Z,99.80
2019-05-21T10:47:41.049Z,99.80
2019-05-21T10:50:09.857Z,99.80
2019-05-21T10:52:38.285Z,99.80
2019-05-21T10:55:09.476Z,99.80
2019-05-21T10:57:37.916Z,99.80
2019-05-21T11:00:10.616Z,99.60
2019-05-21T11:02:40.708Z,99.30
2019-05-21T11:05:16.826Z,99.20
2019-05-21T11:07:45.716Z,98.70
2019-05-21T11:10:14.750Z,98.80
2019-05-21T11:12:43.606Z,99.50
2019-05-21T11:15:12.337Z,99.00
2019-05-21T11:17:53.693Z,99.20
2019-05-21T11:20:11.671Z,98.80
2019-05-21T11:22:40.472Z,99.20
2019-05-21T11:25:08.978Z,99.30
2019-05-21T11:27:37.430Z,99.20
2019-05-21T11:30:09.769Z,98.60
2019-05-21T11:32:38.610Z,99.00
2019-05-21T11:35:08.790Z,98.60
2019-05-21T11:37:37.258Z,98.70
2019-05-21T11:40:08.678Z,99.20
2019-05-21T11:42:37.284Z,98.80
2019-05-21T11:45:07.416Z,98.70
2019-05-21T11:47:35.892Z,98.20
2019-05-21T11:50:07.058Z,98.40
2019-05-21T11:52:35.512Z,98.20
2019-05-21T11:55:04.721Z,98.90
2019-05-21T11:57:33.180Z,98.50
2019-05-21T12:00:01.999Z,98.30
2019-05-21T12:02:30.433Z,99.30
2019-05-21T12:04:58.886Z,98.80
2019-05-21T12:07:27.386Z,98.70
2019-05-21T12:09:55.842Z,98.30
2019-05-21T12:12:24.279Z,98.70
2019-05-21T12:14:52.755Z,99.10
2019-05-21T12:17:21.552Z,99.20
2019-05-21T12:19:49.998Z,99.10
2019-05-21T12:22:18.466Z,99.30
2019-05-21T12:24:46.938Z,99.70
2019-05-21T12:27:15.506Z,99.70
2019-05-21T12:29:44.006Z,99.40
2019-05-21T12:32:12.953Z,99.50
2019-05-21T12:34:41.401Z,99.50
2019-05-21T12:37:11.027Z,99.60
2019-05-21T12:39:39.471Z,99.10
2019-05-21T12:42:07.962Z,99.40
2019-05-21T12:44:36.489Z,99.30
2019-05-21T12:47:05.043Z,99.30
2019-05-21T12:49:33.844Z,99.20
2019-05-21T12:52:02.688Z,99.80
2019-05-21T12:54:31.115Z,99.40
2019-05-21T12:56:59.564Z,99.20
2019-05-21T12:59:28.011Z,99.80
2019-05-21T13:01:56.865Z,99.60
2019-05-21T13:04:25.329Z,99.40
2019-05-21T13:06:54.479Z,99.70
2019-05-21T13:09:32.220Z,99.50
2019-05-21T13:11:53.195Z,99.80
2019-05-21T13:14:21.665Z,99.80
2019-05-21T13:16:50.132Z,99.70
2019-05-21T13:19:18.609Z,99.80
2019-05-21T13:21:47.461Z,99.80
2019-05-21T13:24:15.950Z,99.80
2019-05-21T13:26:44.488Z,99.80
2019-05-21T13:29:13.050Z,99.80
2019-05-21T13:31:41.606Z,99.50
2019-05-21T13:34:10.085Z,99.70
2019-05-21T13:36:38.580Z,99.70
2019-05-21T13:39:09.615Z,99.80
2019-05-21T13:41:38.069Z,99.80
2019-05-21T13:44:06.499Z,99.70
2019-05-21T13:46:35.852Z,99.80
2019-05-21T13:49:04.941Z,99.40
2019-05-21T13:51:33.401Z,99.80
2019-05-21T13:54:02.216Z,99.30
2019-05-21T13:56:30.755Z,99.50
2019-05-21T13:58:59.199Z,99.00
2019-05-21T14:01:39.992Z,99.10
2019-05-21T14:03:57.849Z,98.10
2019-05-21T14:06:26.283Z,98.70
2019-05-21T14:08:54.841Z,98.50
2019-05-21T14:11:23.806Z,98.10
2019-05-21T14:13:52.302Z,98.50
2019-05-21T14:16:20.800Z,98.70
2019-05-21T14:18:49.734Z,97.90
2019-05-21T14:21:18.348Z,98.80
2019-05-21T14:23:46.850Z,98.70
2019-05-21T14:26:15.331Z,99.30
2019-05-21T14:28:43.859Z,99.20
2019-05-21T14:31:12.282Z,99.50
2019-05-21T14:33:40.755Z,99.60
2019-05-21T14:36:09.527Z,99.80
2019-05-21T14:38:37.997Z,99.70
2019-05-21T14:41:06.483Z,99.00
2019-05-21T14:43:35.476Z,99.30
2019-05-21T14:46:04.218Z,99.50
2019-05-21T14:48:32.685Z,99.40
2019-05-21T14:51:01.154Z,99.30
2019-05-21T14:53:29.590Z,99.20
2019-05-21T14:55:58.392Z,99.50
2019-05-21T14:58:26.881Z,99.30
2019-05-21T15:00:55.723Z,99.30
2019-05-21T15:03:25.597Z,99.30
2019-05-21T15:05:54.429Z,99.30
2019-05-21T15:08:23.339Z,99.60
2019-05-21T15:10:51.803Z,99.40
2019-05-21T15:13:20.240Z,99.40
2019-05-21T15:15:48.706Z,99.50
2019-05-21T15:18:21.967Z,99.30
2019-05-21T15:20:49.006Z,99.10
2019-05-21T15:23:17.508Z,98.70
2019-05-21T15:25:45.951Z,98.60
2019-05-21T15:28:17.387Z,98.90
2019-05-21T15:30:45.824Z,99.10
2019-05-21T15:33:14.275Z,99.50
2019-05-21T15:35:42.760Z,98.70
2019-05-21T15:38:11.652Z,98.90
2019-05-21T15:40:40.411Z,98.80
2019-05-21T15:43:08.918Z,98.50
2019-05-21T15:45:37.703Z,98.80
2019-05-21T15:48:06.147Z,98.70
2019-05-21T15:50:35.062Z,98.80
2019-05-21T15:53:03.482Z,98.70
2019-05-21T15:55:31.951Z,98.80
2019-05-21T15:58:00.481Z,99.00
2019-05-21T16:00:29.116Z,99.20
2019-05-21T16:02:57.565Z,99.30
2019-05-21T16:05:26.129Z,99.20
2019-05-21T16:07:54.695Z,99.30
2019-05-21T16:10:23.126Z,98.90
2019-05-21T16:12:54.150Z,99.10
2019-05-21T16:15:22.125Z,98.80
2019-05-21T16:17:50.564Z,98.50
2019-05-21T16:20:19.946Z,99.00
2019-05-21T16:22:48.391Z,98.90
2019-05-21T16:25:17.283Z,98.40
2019-05-21T16:27:45.724Z,98.90
2019-05-21T16:30:14.308Z,98.50
2019-05-21T16:32:43.135Z,98.40
2019-05-21T16:35:11.901Z,98.50
2019-05-21T16:37:40.528Z,98.30
2019-05-21T16:40:10.126Z,98.40
2019-05-21T16:42:38.578Z,98.10
2019-05-21T16:45:08.755Z,98.50
2019-05-21T16:47:45.542Z,98.20
2019-05-21T16:50:08.847Z,98.20
2019-05-21T16:52:38.353Z,98.00
2019-05-21T16:55:07.724Z,97.90
2019-05-21T16:57:36.560Z,98.10
2019-05-21T17:00:07.631Z,98.30
2019-05-21T17:02:36.457Z,98.20
2019-05-21T17:05:08.978Z,98.50
2019-05-21T17:07:37.530Z,98.80
2019-05-21T17:10:06.539Z,98.60
2019-05-21T17:12:34.990Z,98.40
2019-05-21T17:15:05.487Z,98.70
2019-05-21T17:17:33.930Z,98.80
2019-05-21T17:20:03.096Z,99.20
2019-05-21T17:22:31.888Z,99.10
2019-05-21T17:25:00.311Z,99.20
2019-05-21T17:27:29.127Z,99.50
2019-05-21T17:29:57.553Z,99.40
2019-05-21T17:32:26.022Z,99.60
2019-05-21T17:34:56.478Z,99.50
2019-05-21T17:37:25.324Z,99.60
2019-05-21T17:39:53.855Z,99.50
2019-05-21T17:42:22.313Z,99.30
2019-05-21T17:44:50.760Z,99.50
2019-05-21T17:47:19.542Z,99.30
2019-05-21T17:49:48.042Z,99.50
2019-05-21T17:52:16.588Z,99.10
2019-05-21T17:54:56.329Z,99.20
2019-05-21T17:57:15.411Z,99.50
2019-05-21T17:59:43.906Z,99.70
2019-05-21T18:02:15.069Z,99.60
2019-05-21T18:04:43.644Z,99.50
2019-05-21T18:07:13.075Z,99.50
2019-05-21T18:09:42.406Z,99.60
2019-05-21T18:12:12.599Z,99.60
2019-05-21T18:14:41.582Z,99.60
2019-05-21T18:17:11.758Z,99.70
2019-05-21T18:19:59.412Z,99.40
2019-05-21T18:22:30.015Z,99.60
2019-05-21T18:25:06.791Z,99.70
2019-05-21T18:27:43.004Z,99.60
2019-05-21T18:30:12.780Z,99.60
2019-05-21T18:32:41.373Z,99.60
2019-05-21T18:35:10.269Z,99.60
2019-05-21T18:37:39.988Z,99.70
2019-05-21T18:40:12.701Z,99.60
2019-05-21T18:42:41.257Z,99.40
2019-05-21T18:45:10.805Z,99.40
2019-05-21T18:47:40.805Z,99.50
2019-05-21T18:50:09.911Z,99.30
2019-05-21T18:52:38.433Z,99.40
2019-05-21T18:55:07.219Z,99.40
2019-05-21T18:57:36.045Z,99.30
2019-05-21T19:00:07.939Z,99.30
2019-05-21T19:02:36.859Z,99.30
2019-05-21T19:05:09.657Z,99.30
2019-05-21T19:07:38.470Z,99.40
2019-05-21T19:10:19.227Z,99.30
2019-05-21T19:12:47.721Z,99.40
2019-05-21T19:15:16.623Z,99.00
2019-05-21T19:17:45.223Z,99.00
2019-05-21T19:20:23.638Z,99.30
2019-05-21T19:22:52.419Z,98.90
2019-05-21T19:25:20.880Z,99.20
2019-05-21T19:27:49.463Z,99.30
2019-05-21T19:30:18.446Z,99.40
2019-05-21T19:32:47.556Z,99.20
2019-05-21T19:35:17.091Z,99.00
2019-05-21T19:37:45.584Z,98.90
2019-05-21T19:40:14.208Z,99.10
2019-05-21T19:42:54.361Z,99.00
2019-05-21T19:45:13.663Z,98.90
2019-05-21T19:47:42.219Z,98.60
2019-05-21T19:50:11.409Z,98.80
2019-05-21T19:52:39.873Z,98.60
2019-05-21T19:55:08.960Z,98.50
2019-05-21T19:57:38.307Z,98.60
2019-05-21T20:00:08.508Z,98.20
2019-05-21T20:02:37.212Z,98.60
2019-05-21T20:05:07.778Z,98.40
2019-05-21T20:07:36.923Z,98.70
2019-05-21T20:10:07.208Z,98.50
2019-05-21T20:12:36.557Z,98.40
2019-05-21T20:15:07.862Z,98.60
2019-05-21T20:17:38.021Z,98.50
2019-05-21T20:20:09.188Z,98.50
2019-05-21T20:22:43.721Z,98.40
2019-05-21T20:25:12.974Z,98.20
2019-05-21T20:27:42.183Z,98.20
2019-05-21T20:30:13.096Z,98.40
2019-05-21T20:32:42.977Z,98.40
2019-05-21T20:35:14.127Z,98.50
2019-05-21T20:37:44.359Z,98.30
2019-05-21T20:40:14.761Z,98.40
2019-05-21T20:42:43.259Z,98.30
2019-05-21T20:45:14.522Z,98.30
2019-05-21T20:47:44.532Z,98.30
2019-05-21T20:50:15.066Z,98.10
2019-05-21T20:52:43.818Z,98.40
2019-05-21T20:55:12.823Z,98.30
2019-05-21T20:57:42.227Z,98.50
2019-05-21T21:00:13.357Z,98.50
2019-05-21T21:02:42.740Z,98.70
2019-05-21T21:05:12.072Z,98.50
2019-05-21T21:07:41.108Z,98.50
2019-05-21T21:10:12.184Z,98.60
2019-05-21T21:12:41.463Z,98.60
2019-05-21T21:15:11.735Z,98.80
2019-05-21T21:17:40.442Z,98.90
2019-05-21T21:20:09.250Z,98.90
2019-05-21T21:22:37.701Z,99.00
2019-05-21T21:25:07.377Z,99.00
2019-05-21T21:27:36.849Z,99.00
2019-05-21T21:30:09.915Z,99.00
2019-05-21T21:32:39.473Z,99.10
2019-05-21T21:35:10.149Z,99.30
2019-05-21T21:37:38.728Z,99.30
2019-05-21T21:40:10.247Z,99.20
2019-05-21T21:42:40.032Z,99.20
2019-05-21T21:45:09.107Z,99.10
2019-05-21T21:47:38.439Z,99.10
2019-05-21T21:50:07.153Z,99.20
2019-05-21T21:52:36.613Z,99.20
2019-05-21T21:55:07.693Z,99.30
2019-05-21T21:57:36.148Z,99.50
2019-05-21T22:00:10.290Z,99.40
2019-05-21T22:02:39.754Z,99.20
2019-05-21T22:05:09.719Z,99.30
2019-05-21T22:07:38.755Z,99.30
2019-05-21T22:10:08.670Z,99.40
2019-05-21T22:12:37.207Z,99.30
2019-05-21T22:15:09.986Z,99.40
2019-05-21T22:17:38.960Z,99.30
2019-05-21T22:20:09.526Z,99.40
2019-05-21T22:22:38.268Z,99.30
2019-05-21T22:25:07.293Z,98.80
2019-05-21T22:27:35.870Z,99.00
2019-05-21T22:30:06.455Z,99.00
2019-05-21T22:32:34.945Z,99.00
2019-05-21T22:35:04.345Z,99.00
2019-05-21T22:37:32.855Z,99.10
2019-05-21T22:40:01.465Z,99.20
2019-05-21T22:42:31.939Z,99.20
2019-05-21T22:45:08.114Z,99.30
2019-05-21T22:47:31.128Z,99.30
2019-05-21T22:49:59.567Z,99.40
2019-05-21T22:52:28.013Z,99.20
2019-05-21T22:54:56.461Z,99.20
2019-05-21T22:57:26.246Z,99.30
2019-05-21T22:59:55.305Z,99.40
2019-05-21T23:02:25.395Z,99.50
2019-05-21T23:04:53.870Z,99.40
2019-05-21T23:07:22.338Z,99.30
2019-05-21T23:09:51.566Z,99.30
2019-05-21T23:12:20.196Z,99.20
2019-05-21T23:14:49.543Z,99.10
2019-05-21T23:17:18.030Z,99.20
2019-05-21T23:19:50.043Z,99.30
2019-05-21T23:22:19.876Z,99.30
2019-05-21T23:24:48.356Z,99.10
2019-05-21T23:27:17.463Z,99.10
2019-05-21T23:29:46.088Z,98.90
2019-05-21T23:32:15.304Z,98.80
2019-05-21T23:34:44.966Z,98.90
2019-05-21T23:37:16.663Z,99.00
2019-05-21T23:39:46.025Z,98.70
2019-05-21T23:42:28.669Z,98.80
2019-05-21T23:44:45.639Z,98.70
2019-05-21T23:47:15.832Z,98.80
2019-05-21T23:49:44.275Z,98.80
2019-05-21T23:52:12.740Z,98.90
2019-05-21T23:54:41.218Z,98.90
2019-05-21T23:57:12.860Z,98.70
2019-05-21T23:59:42.446Z,98.60
